sensor_id;sensor_type;location;lat;lon;timestamp;P1;durP1;ratioP1;P2;durP2;ratioP2
14373;SDS011;7270;49.004;12.066;2024-02-23T00:00:58;1.60;;;1.50;;
14373;SDS011;7270;49.004;12.066;2024-02-23T00:03:31;1.50;;;1.40;;
14373;SDS011;7270;49.004;12.066;2024-02-23T00:05:58;1.43;;;1.33;;
14373;SDS011;7270;49.004;12.066;2024-02-23T00:08:24;1.60;;;1.50;;
14373;SDS011;7270;49.004;12.066;2024-02-23T00:10:52;1.40;;;1.30;;
14373;SDS011;7270;49.004;12.066;2024-02-23T00:13:18;1.60;;;1.50;;
14373;SDS011;7270;49.004;12.066;2024-02-23T00:15:44;1.50;;;1.40;;
14373;SDS011;7270;49.004;12.066;2024-02-23T00:18:11;1.60;;;1.50;;
14373;SDS011;7270;49.004;12.066;2024-02-23T00:20:38;1.40;;;1.30;;
14373;SDS011;7270;49.004;12.066;2024-02-23T00:23:04;1.40;;;1.30;;
14373;SDS011;7270;49.004;12.066;2024-02-23T00:25:30;1.50;;;1.40;;
14373;SDS011;7270;49.004;12.066;2024-02-23T00:27:58;1.63;;;1.53;;
14373;SDS011;7270;49.004;12.066;2024-02-23T00:30:25;1.40;;;1.30;;
14373;SDS011;7270;49.004;12.066;2024-02-23T00:32:52;1.50;;;1.40;;
14373;SDS011;7270;49.004;12.066;2024-02-23T00:35:18;1.60;;;1.50;;
14373;SDS011;7270;49.004;12.066;2024-02-23T00:37:45;1.50;;;1.40;;
14373;SDS011;7270;49.004;12.066;2024-02-23T00:40:11;1.50;;;1.40;;
14373;SDS011;7270;49.004;12.066;2024-02-23T00:42:38;1.60;;;1.50;;
14373;SDS011;7270;49.004;12.066;2024-02-23T00:45:06;1.57;;;1.47;;
14373;SDS011;7270;49.004;12.066;2024-02-23T00:47:33;1.60;;;1.50;;
14373;SDS011;7270;49.004;12.066;2024-02-23T00:50:00;1.57;;;1.47;;
14373;SDS011;7270;49.004;12.066;2024-02-23T00:52:26;1.70;;;1.60;;
14373;SDS011;7270;49.004;12.066;2024-02-23T00:54:53;1.60;;;1.50;;
14373;SDS011;7270;49.004;12.066;2024-02-23T00:57:19;1.60;;;1.50;;
14373;SDS011;7270;49.004;12.066;2024-02-23T00:59:52;1.80;;;1.70;;
14373;SDS011;7270;49.004;12.066;2024-02-23T01:02:19;1.60;;;1.50;;
14373;SDS011;7270;49.004;12.066;2024-02-23T01:04:46;1.60;;;1.50;;
14373;SDS011;7270;49.004;12.066;2024-02-23T01:07:12;1.60;;;1.50;;
14373;SDS011;7270;49.004;12.066;2024-02-23T01:09:38;1.50;;;1.40;;
14373;SDS011;7270;49.004;12.066;2024-02-23T01:12:05;1.60;;;1.50;;
14373;SDS011;7270;49.004;12.066;2024-02-23T01:14:31;1.50;;;1.40;;
14373;SDS011;7270;49.004;12.066;2024-02-23T01:16:58;1.60;;;1.50;;
14373;SDS011;7270;49.004;12.066;2024-02-23T01:19:25;1.60;;;1.50;;
14373;SDS011;7270;49.004;12.066;2024-02-23T01:21:51;1.70;;;1.60;;
14373;SDS011;7270;49.004;12.066;2024-02-23T01:24:24;1.40;;;1.30;;
14373;SDS011;7270;49.004;12.066;2024-02-23T01:26:52;1.60;;;1.50;;
14373;SDS011;7270;49.004;12.066;2024-02-23T01:29:18;1.40;;;1.30;;
14373;SDS011;7270;49.004;12.066;2024-02-23T01:31:45;1.60;;;1.50;;
14373;SDS011;7270;49.004;12.066;2024-02-23T01:34:11;1.60;;;1.50;;
14373;SDS011;7270;49.004;12.066;2024-02-23T01:36:39;1.50;;;1.40;;
14373;SDS011;7270;49.004;12.066;2024-02-23T01:39:05;1.63;;;1.53;;
14373;SDS011;7270;49.004;12.066;2024-02-23T01:41:32;1.60;;;1.50;;
14373;SDS011;7270;49.004;12.066;2024-02-23T01:43:58;1.40;;;1.30;;
14373;SDS011;7270;49.004;12.066;2024-02-23T01:46:25;1.70;;;1.60;;
14373;SDS011;7270;49.004;12.066;2024-02-23T01:48:51;1.40;;;1.30;;
14373;SDS011;7270;49.004;12.066;2024-02-23T01:51:18;1.40;;;1.30;;
14373;SDS011;7270;49.004;12.066;2024-02-23T01:53:45;1.60;;;1.50;;
14373;SDS011;7270;49.004;12.066;2024-02-23T01:56:12;1.67;;;1.57;;
14373;SDS011;7270;49.004;12.066;2024-02-23T01:58:42;1.60;;;1.50;;
14373;SDS011;7270;49.004;12.066;2024-02-23T02:01:09;1.50;;;1.40;;
14373;SDS011;7270;49.004;12.066;2024-02-23T02:06:05;1.60;;;1.50;;
14373;SDS011;7270;49.004;12.066;2024-02-23T02:08:32;1.50;;;1.40;;
14373;SDS011;7270;49.004;12.066;2024-02-23T02:11:00;1.50;;;1.40;;
14373;SDS011;7270;49.004;12.066;2024-02-23T02:13:27;1.70;;;1.60;;
14373;SDS011;7270;49.004;12.066;2024-02-23T02:15:54;1.60;;;1.50;;
14373;SDS011;7270;49.004;12.066;2024-02-23T02:18:20;1.50;;;1.40;;
14373;SDS011;7270;49.004;12.066;2024-02-23T02:20:50;1.60;;;1.50;;
14373;SDS011;7270;49.004;12.066;2024-02-23T02:23:16;1.60;;;1.50;;
14373;SDS011;7270;49.004;12.066;2024-02-23T02:25:43;1.60;;;1.50;;
14373;SDS011;7270;49.004;12.066;2024-02-23T02:28:10;1.40;;;1.30;;
14373;SDS011;7270;49.004;12.066;2024-02-23T02:30:37;1.60;;;1.50;;
14373;SDS011;7270;49.004;12.066;2024-02-23T02:33:03;1.60;;;1.50;;
14373;SDS011;7270;49.004;12.066;2024-02-23T02:35:30;1.70;;;1.60;;
14373;SDS011;7270;49.004;12.066;2024-02-23T02:37:56;1.80;;;1.70;;
14373;SDS011;7270;49.004;12.066;2024-02-23T02:40:22;1.80;;;1.70;;
14373;SDS011;7270;49.004;12.066;2024-02-23T02:42:48;1.60;;;1.50;;
14373;SDS011;7270;49.004;12.066;2024-02-23T02:45:16;1.70;;;1.60;;
14373;SDS011;7270;49.004;12.066;2024-02-23T02:47:44;1.50;;;1.40;;
14373;SDS011;7270;49.004;12.066;2024-02-23T02:50:10;1.60;;;1.50;;
14373;SDS011;7270;49.004;12.066;2024-02-23T02:52:36;1.70;;;1.60;;
14373;SDS011;7270;49.004;12.066;2024-02-23T02:55:03;1.77;;;1.67;;
14373;SDS011;7270;49.004;12.066;2024-02-23T02:57:29;1.90;;;1.80;;
14373;SDS011;7270;49.004;12.066;2024-02-23T02:59:56;1.70;;;1.60;;
14373;SDS011;7270;49.004;12.066;2024-02-23T03:02:23;1.60;;;1.50;;
14373;SDS011;7270;49.004;12.066;2024-02-23T03:04:50;1.60;;;1.50;;
14373;SDS011;7270;49.004;12.066;2024-02-23T03:07:16;1.60;;;1.50;;
14373;SDS011;7270;49.004;12.066;2024-02-23T03:09:43;1.70;;;1.60;;
14373;SDS011;7270;49.004;12.066;2024-02-23T03:12:10;1.70;;;1.60;;
14373;SDS011;7270;49.004;12.066;2024-02-23T03:14:36;1.60;;;1.50;;
14373;SDS011;7270;49.004;12.066;2024-02-23T03:17:05;1.60;;;1.50;;
14373;SDS011;7270;49.004;12.066;2024-02-23T03:19:32;1.70;;;1.60;;
14373;SDS011;7270;49.004;12.066;2024-02-23T03:21:59;1.80;;;1.70;;
14373;SDS011;7270;49.004;12.066;2024-02-23T03:24:25;1.80;;;1.70;;
14373;SDS011;7270;49.004;12.066;2024-02-23T03:26:51;1.70;;;1.60;;
14373;SDS011;7270;49.004;12.066;2024-02-23T03:29:18;1.83;;;1.73;;
14373;SDS011;7270;49.004;12.066;2024-02-23T03:31:45;1.60;;;1.50;;
14373;SDS011;7270;49.004;12.066;2024-02-23T03:34:11;1.77;;;1.67;;
14373;SDS011;7270;49.004;12.066;2024-02-23T03:36:39;1.80;;;1.70;;
14373;SDS011;7270;49.004;12.066;2024-02-23T03:39:05;1.63;;;1.53;;
14373;SDS011;7270;49.004;12.066;2024-02-23T03:41:32;1.70;;;1.60;;
14373;SDS011;7270;49.004;12.066;2024-02-23T03:43:58;1.80;;;1.70;;
14373;SDS011;7270;49.004;12.066;2024-02-23T03:46:24;1.70;;;1.60;;
14373;SDS011;7270;49.004;12.066;2024-02-23T03:48:52;1.80;;;1.70;;
14373;SDS011;7270;49.004;12.066;2024-02-23T03:51:18;1.80;;;1.70;;
14373;SDS011;7270;49.004;12.066;2024-02-23T03:53:46;1.70;;;1.60;;
14373;SDS011;7270;49.004;12.066;2024-02-23T03:56:12;1.70;;;1.60;;
14373;SDS011;7270;49.004;12.066;2024-02-23T03:58:39;1.60;;;1.50;;
14373;SDS011;7270;49.004;12.066;2024-02-23T04:01:05;1.50;;;1.40;;
14373;SDS011;7270;49.004;12.066;2024-02-23T04:03:31;1.70;;;1.60;;
14373;SDS011;7270;49.004;12.066;2024-02-23T04:05:58;1.80;;;1.70;;
14373;SDS011;7270;49.004;12.066;2024-02-23T04:08:24;1.70;;;1.60;;
14373;SDS011;7270;49.004;12.066;2024-02-23T04:10:52;1.60;;;1.50;;
14373;SDS011;7270;49.004;12.066;2024-02-23T04:13:18;1.83;;;1.73;;
14373;SDS011;7270;49.004;12.066;2024-02-23T04:15:45;1.80;;;1.70;;
14373;SDS011;7270;49.004;12.066;2024-02-23T04:18:11;1.90;;;1.80;;
14373;SDS011;7270;49.004;12.066;2024-02-23T04:20:37;1.70;;;1.60;;
14373;SDS011;7270;49.004;12.066;2024-02-23T04:23:03;1.93;;;1.83;;
14373;SDS011;7270;49.004;12.066;2024-02-23T04:25:30;1.80;;;1.70;;
14373;SDS011;7270;49.004;12.066;2024-02-23T04:27:58;1.80;;;1.70;;
14373;SDS011;7270;49.004;12.066;2024-02-23T04:30:27;1.70;;;1.60;;
14373;SDS011;7270;49.004;12.066;2024-02-23T04:32:53;1.60;;;1.50;;
14373;SDS011;7270;49.004;12.066;2024-02-23T04:35:19;1.60;;;1.50;;
14373;SDS011;7270;49.004;12.066;2024-02-23T04:37:46;1.63;;;1.53;;
14373;SDS011;7270;49.004;12.066;2024-02-23T04:40:14;1.70;;;1.60;;
14373;SDS011;7270;49.004;12.066;2024-02-23T04:42:42;1.60;;;1.50;;
14373;SDS011;7270;49.004;12.066;2024-02-23T04:45:10;1.80;;;1.70;;
14373;SDS011;7270;49.004;12.066;2024-02-23T04:47:37;1.60;;;1.50;;
14373;SDS011;7270;49.004;12.066;2024-02-23T04:50:05;1.63;;;1.53;;
14373;SDS011;7270;49.004;12.066;2024-02-23T04:52:32;1.90;;;1.80;;
14373;SDS011;7270;49.004;12.066;2024-02-23T04:54:58;1.70;;;1.60;;
14373;SDS011;7270;49.004;12.066;2024-02-23T04:57:24;1.83;;;1.73;;
14373;SDS011;7270;49.004;12.066;2024-02-23T04:59:51;1.80;;;1.70;;
14373;SDS011;7270;49.004;12.066;2024-02-23T05:02:18;1.70;;;1.60;;
14373;SDS011;7270;49.004;12.066;2024-02-23T05:04:45;1.83;;;1.73;;
14373;SDS011;7270;49.004;12.066;2024-02-23T05:07:11;1.90;;;1.80;;
14373;SDS011;7270;49.004;12.066;2024-02-23T05:09:37;1.80;;;1.70;;
14373;SDS011;7270;49.004;12.066;2024-02-23T05:12:06;1.90;;;1.80;;
14373;SDS011;7270;49.004;12.066;2024-02-23T05:14:32;1.70;;;1.60;;
14373;SDS011;7270;49.004;12.066;2024-02-23T05:16:58;2.00;;;1.90;;
14373;SDS011;7270;49.004;12.066;2024-02-23T05:19:26;1.70;;;1.60;;
14373;SDS011;7270;49.004;12.066;2024-02-23T05:21:52;1.97;;;1.87;;
14373;SDS011;7270;49.004;12.066;2024-02-23T05:24:19;1.70;;;1.60;;
14373;SDS011;7270;49.004;12.066;2024-02-23T05:26:46;1.70;;;1.60;;
14373;SDS011;7270;49.004;12.066;2024-02-23T05:29:13;1.90;;;1.80;;
14373;SDS011;7270;49.004;12.066;2024-02-23T05:31:46;1.70;;;1.60;;
14373;SDS011;7270;49.004;12.066;2024-02-23T05:34:12;1.80;;;1.70;;
14373;SDS011;7270;49.004;12.066;2024-02-23T05:36:40;1.80;;;1.70;;
14373;SDS011;7270;49.004;12.066;2024-02-23T05:39:06;1.80;;;1.70;;
14373;SDS011;7270;49.004;12.066;2024-02-23T05:41:34;1.93;;;1.83;;
14373;SDS011;7270;49.004;12.066;2024-02-23T05:44:01;1.87;;;1.77;;
14373;SDS011;7270;49.004;12.066;2024-02-23T05:46:29;1.83;;;1.73;;
14373;SDS011;7270;49.004;12.066;2024-02-23T05:48:55;1.90;;;1.80;;
14373;SDS011;7270;49.004;12.066;2024-02-23T05:51:21;1.93;;;1.83;;
14373;SDS011;7270;49.004;12.066;2024-02-23T05:53:49;1.70;;;1.60;;
14373;SDS011;7270;49.004;12.066;2024-02-23T05:56:15;1.80;;;1.70;;
14373;SDS011;7270;49.004;12.066;2024-02-23T05:58:42;2.00;;;1.90;;
14373;SDS011;7270;49.004;12.066;2024-02-23T06:01:08;1.70;;;1.60;;
14373;SDS011;7270;49.004;12.066;2024-02-23T06:03:34;2.03;;;1.93;;
14373;SDS011;7270;49.004;12.066;2024-02-23T06:08:31;2.00;;;1.90;;
14373;SDS011;7270;49.004;12.066;2024-02-23T06:10:59;1.67;;;1.57;;
14373;SDS011;7270;49.004;12.066;2024-02-23T06:13:25;1.70;;;1.60;;
14373;SDS011;7270;49.004;12.066;2024-02-23T06:15:51;1.70;;;1.60;;
14373;SDS011;7270;49.004;12.066;2024-02-23T06:18:18;1.80;;;1.70;;
14373;SDS011;7270;49.004;12.066;2024-02-23T06:20:45;1.90;;;1.80;;
14373;SDS011;7270;49.004;12.066;2024-02-23T06:23:11;2.00;;;1.90;;
14373;SDS011;7270;49.004;12.066;2024-02-23T06:25:38;1.73;;;1.63;;
14373;SDS011;7270;49.004;12.066;2024-02-23T06:28:06;1.90;;;1.80;;
14373;SDS011;7270;49.004;12.066;2024-02-23T06:30:35;1.87;;;1.77;;
14373;SDS011;7270;49.004;12.066;2024-02-23T06:33:07;2.43;;;2.23;;
14373;SDS011;7270;49.004;12.066;2024-02-23T06:35:36;1.90;;;1.80;;
14373;SDS011;7270;49.004;12.066;2024-02-23T06:38:03;1.90;;;1.80;;
14373;SDS011;7270;49.004;12.066;2024-02-23T06:40:30;1.90;;;1.80;;
14373;SDS011;7270;49.004;12.066;2024-02-23T06:42:57;1.80;;;1.70;;
14373;SDS011;7270;49.004;12.066;2024-02-23T06:45:25;2.03;;;1.93;;
14373;SDS011;7270;49.004;12.066;2024-02-23T06:47:52;1.70;;;1.60;;
14373;SDS011;7270;49.004;12.066;2024-02-23T06:53:17;2.13;;;2.00;;
14373;SDS011;7270;49.004;12.066;2024-02-23T06:55:43;1.80;;;1.70;;
14373;SDS011;7270;49.004;12.066;2024-02-23T06:58:17;2.33;;;2.13;;
14373;SDS011;7270;49.004;12.066;2024-02-23T07:00:44;2.20;;;2.00;;
14373;SDS011;7270;49.004;12.066;2024-02-23T07:03:12;2.30;;;2.10;;
14373;SDS011;7270;49.004;12.066;2024-02-23T07:05:39;2.27;;;2.07;;
14373;SDS011;7270;49.004;12.066;2024-02-23T07:08:07;1.73;;;1.63;;
14373;SDS011;7270;49.004;12.066;2024-02-23T07:10:33;1.90;;;1.80;;
14373;SDS011;7270;49.004;12.066;2024-02-23T07:13:00;2.00;;;1.90;;
14373;SDS011;7270;49.004;12.066;2024-02-23T07:15:26;1.80;;;1.70;;
14373;SDS011;7270;49.004;12.066;2024-02-23T07:17:54;1.80;;;1.70;;
14373;SDS011;7270;49.004;12.066;2024-02-23T07:20:20;1.90;;;1.80;;
14373;SDS011;7270;49.004;12.066;2024-02-23T07:22:46;1.80;;;1.70;;
14373;SDS011;7270;49.004;12.066;2024-02-23T07:25:15;1.77;;;1.67;;
14373;SDS011;7270;49.004;12.066;2024-02-23T07:27:42;1.80;;;1.70;;
14373;SDS011;7270;49.004;12.066;2024-02-23T07:30:09;1.90;;;1.80;;
14373;SDS011;7270;49.004;12.066;2024-02-23T07:32:35;1.90;;;1.80;;
14373;SDS011;7270;49.004;12.066;2024-02-23T07:35:03;1.70;;;1.60;;
14373;SDS011;7270;49.004;12.066;2024-02-23T07:37:30;1.93;;;1.83;;
14373;SDS011;7270;49.004;12.066;2024-02-23T07:39:56;2.00;;;1.90;;
14373;SDS011;7270;49.004;12.066;2024-02-23T07:42:23;2.00;;;1.90;;
14373;SDS011;7270;49.004;12.066;2024-02-23T07:44:49;1.70;;;1.60;;
14373;SDS011;7270;49.004;12.066;2024-02-23T07:47:15;2.03;;;1.93;;
14373;SDS011;7270;49.004;12.066;2024-02-23T07:49:42;1.90;;;1.80;;
14373;SDS011;7270;49.004;12.066;2024-02-23T07:52:10;2.00;;;1.90;;
14373;SDS011;7270;49.004;12.066;2024-02-23T07:54:36;1.73;;;1.63;;
14373;SDS011;7270;49.004;12.066;2024-02-23T07:57:03;2.10;;;1.90;;
14373;SDS011;7270;49.004;12.066;2024-02-23T07:59:30;1.90;;;1.80;;
14373;SDS011;7270;49.004;12.066;2024-02-23T08:01:56;64.33;;;33.77;;
14373;SDS011;7270;49.004;12.066;2024-02-23T08:04:22;2.07;;;1.97;;
14373;SDS011;7270;49.004;12.066;2024-02-23T08:06:49;27.07;;;20.83;;
14373;SDS011;7270;49.004;12.066;2024-02-23T08:09:17;86.10;;;55.63;;
14373;SDS011;7270;49.004;12.066;2024-02-23T08:11:43;65.53;;;42.33;;
14373;SDS011;7270;49.004;12.066;2024-02-23T08:14:11;55.50;;;43.10;;
14373;SDS011;7270;49.004;12.066;2024-02-23T08:16:37;95.80;;;57.17;;
14373;SDS011;7270;49.004;12.066;2024-02-23T08:19:04;107.90;;;57.83;;
14373;SDS011;7270;49.004;12.066;2024-02-23T08:21:30;133.27;;;70.47;;
14373;SDS011;7270;49.004;12.066;2024-02-23T08:23:56;89.77;;;53.70;;
14373;SDS011;7270;49.004;12.066;2024-02-23T08:26:24;86.83;;;60.07;;
14373;SDS011;7270;49.004;12.066;2024-02-23T08:28:50;85.20;;;59.13;;
14373;SDS011;7270;49.004;12.066;2024-02-23T08:31:17;92.90;;;56.77;;
14373;SDS011;7270;49.004;12.066;2024-02-23T08:33:43;84.90;;;54.60;;
14373;SDS011;7270;49.004;12.066;2024-02-23T08:36:10;88.80;;;52.73;;
14373;SDS011;7270;49.004;12.066;2024-02-23T08:38:36;69.47;;;39.37;;
14373;SDS011;7270;49.004;12.066;2024-02-23T08:41:02;72.70;;;42.43;;
14373;SDS011;7270;49.004;12.066;2024-02-23T08:43:30;51.37;;;32.87;;
14373;SDS011;7270;49.004;12.066;2024-02-23T08:45:57;1.90;;;1.80;;
14373;SDS011;7270;49.004;12.066;2024-02-23T08:48:26;1.70;;;1.60;;
14373;SDS011;7270;49.004;12.066;2024-02-23T08:50:53;1.90;;;1.80;;
14373;SDS011;7270;49.004;12.066;2024-02-23T08:53:19;1.60;;;1.50;;
14373;SDS011;7270;49.004;12.066;2024-02-23T08:55:46;1.70;;;1.60;;
14373;SDS011;7270;49.004;12.066;2024-02-23T08:58:12;1.90;;;1.80;;
14373;SDS011;7270;49.004;12.066;2024-02-23T09:00:40;1.70;;;1.60;;
14373;SDS011;7270;49.004;12.066;2024-02-23T09:03:06;1.70;;;1.60;;
14373;SDS011;7270;49.004;12.066;2024-02-23T09:05:33;1.80;;;1.70;;
14373;SDS011;7270;49.004;12.066;2024-02-23T09:07:59;1.70;;;1.60;;
14373;SDS011;7270;49.004;12.066;2024-02-23T09:10:26;1.80;;;1.70;;
14373;SDS011;7270;49.004;12.066;2024-02-23T09:12:52;1.80;;;1.70;;
14373;SDS011;7270;49.004;12.066;2024-02-23T09:15:18;1.70;;;1.60;;
14373;SDS011;7270;49.004;12.066;2024-02-23T09:17:47;1.80;;;1.70;;
14373;SDS011;7270;49.004;12.066;2024-02-23T09:20:14;1.90;;;1.80;;
14373;SDS011;7270;49.004;12.066;2024-02-23T09:22:40;1.90;;;1.80;;
14373;SDS011;7270;49.004;12.066;2024-02-23T09:25:07;1.90;;;1.80;;
14373;SDS011;7270;49.004;12.066;2024-02-23T09:27:34;1.70;;;1.60;;
14373;SDS011;7270;49.004;12.066;2024-02-23T09:30:08;2.00;;;1.90;;
14373;SDS011;7270;49.004;12.066;2024-02-23T09:32:41;1.80;;;1.70;;
14373;SDS011;7270;49.004;12.066;2024-02-23T09:35:09;1.90;;;1.80;;
14373;SDS011;7270;49.004;12.066;2024-02-23T09:37:36;1.90;;;1.80;;
14373;SDS011;7270;49.004;12.066;2024-02-23T09:40:02;1.70;;;1.60;;
14373;SDS011;7270;49.004;12.066;2024-02-23T09:42:30;1.80;;;1.70;;
14373;SDS011;7270;49.004;12.066;2024-02-23T09:44:59;1.70;;;1.60;;
14373;SDS011;7270;49.004;12.066;2024-02-23T09:47:26;1.80;;;1.70;;
14373;SDS011;7270;49.004;12.066;2024-02-23T09:49:53;1.90;;;1.80;;
14373;SDS011;7270;49.004;12.066;2024-02-23T09:52:21;1.80;;;1.70;;
14373;SDS011;7270;49.004;12.066;2024-02-23T09:54:48;1.83;;;1.73;;
14373;SDS011;7270;49.004;12.066;2024-02-23T09:57:15;1.80;;;1.70;;
14373;SDS011;7270;49.004;12.066;2024-02-23T09:59:42;1.80;;;1.70;;
14373;SDS011;7270;49.004;12.066;2024-02-23T10:02:08;1.90;;;1.80;;
14373;SDS011;7270;49.004;12.066;2024-02-23T10:04:35;1.70;;;1.60;;
14373;SDS011;7270;49.004;12.066;2024-02-23T10:07:04;1.90;;;1.80;;
14373;SDS011;7270;49.004;12.066;2024-02-23T10:09:34;1.70;;;1.60;;
14373;SDS011;7270;49.004;12.066;2024-02-23T10:12:01;1.60;;;1.50;;
14373;SDS011;7270;49.004;12.066;2024-02-23T10:14:28;1.70;;;1.60;;
14373;SDS011;7270;49.004;12.066;2024-02-23T10:16:54;1.70;;;1.60;;
14373;SDS011;7270;49.004;12.066;2024-02-23T10:19:21;1.70;;;1.60;;
14373;SDS011;7270;49.004;12.066;2024-02-23T10:21:47;1.80;;;1.70;;
14373;SDS011;7270;49.004;12.066;2024-02-23T10:24:15;1.70;;;1.60;;
14373;SDS011;7270;49.004;12.066;2024-02-23T10:26:43;1.70;;;1.60;;
14373;SDS011;7270;49.004;12.066;2024-02-23T10:29:10;1.60;;;1.50;;
14373;SDS011;7270;49.004;12.066;2024-02-23T10:31:36;1.80;;;1.70;;
14373;SDS011;7270;49.004;12.066;2024-02-23T10:34:06;1.80;;;1.70;;
14373;SDS011;7270;49.004;12.066;2024-02-23T10:36:34;1.60;;;1.50;;
14373;SDS011;7270;49.004;12.066;2024-02-23T10:39:02;1.67;;;1.57;;
14373;SDS011;7270;49.004;12.066;2024-02-23T10:41:29;1.70;;;1.60;;
14373;SDS011;7270;49.004;12.066;2024-02-23T10:44:00;1.70;;;1.60;;
14373;SDS011;7270;49.004;12.066;2024-02-23T10:46:28;1.50;;;1.40;;
14373;SDS011;7270;49.004;12.066;2024-02-23T10:48:56;1.80;;;1.70;;
14373;SDS011;7270;49.004;12.066;2024-02-23T10:51:24;1.50;;;1.40;;
14373;SDS011;7270;49.004;12.066;2024-02-23T10:53:52;1.70;;;1.60;;
14373;SDS011;7270;49.004;12.066;2024-02-23T10:56:18;1.50;;;1.40;;
14373;SDS011;7270;49.004;12.066;2024-02-23T10:58:47;1.70;;;1.60;;
14373;SDS011;7270;49.004;12.066;2024-02-23T11:01:15;1.50;;;1.40;;
14373;SDS011;7270;49.004;12.066;2024-02-23T11:03:43;1.50;;;1.40;;
14373;SDS011;7270;49.004;12.066;2024-02-23T11:06:13;1.60;;;1.50;;
14373;SDS011;7270;49.004;12.066;2024-02-23T11:08:42;1.40;;;1.30;;
14373;SDS011;7270;49.004;12.066;2024-02-23T11:11:09;1.60;;;1.50;;
14373;SDS011;7270;49.004;12.066;2024-02-23T11:13:35;1.70;;;1.60;;
14373;SDS011;7270;49.004;12.066;2024-02-23T11:16:02;1.40;;;1.30;;
14373;SDS011;7270;49.004;12.066;2024-02-23T11:18:30;1.50;;;1.40;;
14373;SDS011;7270;49.004;12.066;2024-02-23T11:20:58;1.50;;;1.40;;
14373;SDS011;7270;49.004;12.066;2024-02-23T11:23:25;1.50;;;1.40;;
14373;SDS011;7270;49.004;12.066;2024-02-23T11:25:58;1.23;;;1.20;;
14373;SDS011;7270;49.004;12.066;2024-02-23T11:28:25;1.40;;;1.30;;
14373;SDS011;7270;49.004;12.066;2024-02-23T11:30:51;1.30;;;1.20;;
14373;SDS011;7270;49.004;12.066;2024-02-23T11:33:25;1.50;;;1.40;;
14373;SDS011;7270;49.004;12.066;2024-02-23T11:36:08;1.60;;;1.50;;
14373;SDS011;7270;49.004;12.066;2024-02-23T11:38:35;1.50;;;1.40;;
14373;SDS011;7270;49.004;12.066;2024-02-23T11:41:02;1.40;;;1.30;;
14373;SDS011;7270;49.004;12.066;2024-02-23T11:43:29;1.30;;;1.20;;
14373;SDS011;7270;49.004;12.066;2024-02-23T11:45:55;1.60;;;1.50;;
14373;SDS011;7270;49.004;12.066;2024-02-23T11:48:22;1.40;;;1.30;;
14373;SDS011;7270;49.004;12.066;2024-02-23T11:50:49;1.40;;;1.30;;
14373;SDS011;7270;49.004;12.066;2024-02-23T11:53:16;1.50;;;1.40;;
14373;SDS011;7270;49.004;12.066;2024-02-23T11:55:44;1.20;;;1.20;;
14373;SDS011;7270;49.004;12.066;2024-02-23T11:58:10;1.40;;;1.30;;
14373;SDS011;7270;49.004;12.066;2024-02-23T12:00:37;1.40;;;1.30;;
14373;SDS011;7270;49.004;12.066;2024-02-23T12:03:10;1.40;;;1.30;;
14373;SDS011;7270;49.004;12.066;2024-02-23T12:05:36;1.40;;;1.30;;
14373;SDS011;7270;49.004;12.066;2024-02-23T12:08:03;1.40;;;1.30;;
14373;SDS011;7270;49.004;12.066;2024-02-23T12:10:31;1.30;;;1.20;;
14373;SDS011;7270;49.004;12.066;2024-02-23T12:12:57;1.43;;;1.33;;
14373;SDS011;7270;49.004;12.066;2024-02-23T12:15:24;1.60;;;1.50;;
14373;SDS011;7270;49.004;12.066;2024-02-23T12:17:50;1.30;;;1.30;;
14373;SDS011;7270;49.004;12.066;2024-02-23T12:20:17;1.40;;;1.30;;
14373;SDS011;7270;49.004;12.066;2024-02-23T12:22:54;1.20;;;1.20;;
14373;SDS011;7270;49.004;12.066;2024-02-23T12:25:20;1.30;;;1.20;;
14373;SDS011;7270;49.004;12.066;2024-02-23T12:27:53;1.40;;;1.30;;
14373;SDS011;7270;49.004;12.066;2024-02-23T12:30:19;1.30;;;1.20;;
14373;SDS011;7270;49.004;12.066;2024-02-23T12:32:52;1.40;;;1.30;;
14373;SDS011;7270;49.004;12.066;2024-02-23T12:35:28;1.40;;;1.30;;
14373;SDS011;7270;49.004;12.066;2024-02-23T12:37:55;1.53;;;1.43;;
14373;SDS011;7270;49.004;12.066;2024-02-23T12:40:21;1.27;;;1.23;;
14373;SDS011;7270;49.004;12.066;2024-02-23T12:42:47;1.40;;;1.30;;
14373;SDS011;7270;49.004;12.066;2024-02-23T12:45:15;1.40;;;1.30;;
14373;SDS011;7270;49.004;12.066;2024-02-23T12:47:41;1.40;;;1.30;;
14373;SDS011;7270;49.004;12.066;2024-02-23T12:50:10;1.20;;;1.20;;
14373;SDS011;7270;49.004;12.066;2024-02-23T12:52:36;1.40;;;1.30;;
14373;SDS011;7270;49.004;12.066;2024-02-23T12:55:02;1.40;;;1.30;;
14373;SDS011;7270;49.004;12.066;2024-02-23T12:57:29;1.30;;;1.20;;
14373;SDS011;7270;49.004;12.066;2024-02-23T12:59:55;1.30;;;1.20;;
14373;SDS011;7270;49.004;12.066;2024-02-23T13:02:23;1.20;;;1.20;;
14373;SDS011;7270;49.004;12.066;2024-02-23T13:04:49;1.60;;;1.50;;
14373;SDS011;7270;49.004;12.066;2024-02-23T13:07:16;1.50;;;1.40;;
14373;SDS011;7270;49.004;12.066;2024-02-23T13:09:42;1.50;;;1.40;;
14373;SDS011;7270;49.004;12.066;2024-02-23T13:12:09;1.40;;;1.30;;
14373;SDS011;7270;49.004;12.066;2024-02-23T13:14:35;1.30;;;1.20;;
14373;SDS011;7270;49.004;12.066;2024-02-23T13:17:02;1.50;;;1.40;;
14373;SDS011;7270;49.004;12.066;2024-02-23T13:19:30;1.40;;;1.30;;
14373;SDS011;7270;49.004;12.066;2024-02-23T13:21:56;1.40;;;1.30;;
14373;SDS011;7270;49.004;12.066;2024-02-23T13:24:25;1.50;;;1.40;;
14373;SDS011;7270;49.004;12.066;2024-02-23T13:26:51;1.30;;;1.20;;
14373;SDS011;7270;49.004;12.066;2024-02-23T13:29:18;1.23;;;1.20;;
14373;SDS011;7270;49.004;12.066;2024-02-23T13:31:45;1.60;;;1.50;;
14373;SDS011;7270;49.004;12.066;2024-02-23T13:34:12;1.40;;;1.30;;
14373;SDS011;7270;49.004;12.066;2024-02-23T13:36:42;1.20;;;1.20;;
14373;SDS011;7270;49.004;12.066;2024-02-23T13:39:08;1.20;;;1.20;;
14373;SDS011;7270;49.004;12.066;2024-02-23T13:41:35;1.13;;;1.13;;
14373;SDS011;7270;49.004;12.066;2024-02-23T13:44:01;1.20;;;1.20;;
14373;SDS011;7270;49.004;12.066;2024-02-23T13:46:29;1.40;;;1.30;;
14373;SDS011;7270;49.004;12.066;2024-02-23T13:49:02;1.40;;;1.30;;
14373;SDS011;7270;49.004;12.066;2024-02-23T13:51:28;1.30;;;1.20;;
14373;SDS011;7270;49.004;12.066;2024-02-23T13:53:56;1.40;;;1.30;;
14373;SDS011;7270;49.004;12.066;2024-02-23T13:56:22;1.20;;;1.20;;
14373;SDS011;7270;49.004;12.066;2024-02-23T13:58:49;1.23;;;1.20;;
14373;SDS011;7270;49.004;12.066;2024-02-23T14:01:15;1.50;;;1.40;;
14373;SDS011;7270;49.004;12.066;2024-02-23T14:03:44;1.20;;;1.20;;
14373;SDS011;7270;49.004;12.066;2024-02-23T14:06:10;1.20;;;1.20;;
14373;SDS011;7270;49.004;12.066;2024-02-23T14:08:45;1.20;;;1.20;;
14373;SDS011;7270;49.004;12.066;2024-02-23T14:11:14;1.30;;;1.20;;
14373;SDS011;7270;49.004;12.066;2024-02-23T14:13:40;1.30;;;1.20;;
14373;SDS011;7270;49.004;12.066;2024-02-23T14:16:07;1.30;;;1.20;;
14373;SDS011;7270;49.004;12.066;2024-02-23T14:18:35;1.30;;;1.20;;
14373;SDS011;7270;49.004;12.066;2024-02-23T14:21:04;1.30;;;1.20;;
14373;SDS011;7270;49.004;12.066;2024-02-23T14:23:30;1.20;;;1.20;;
14373;SDS011;7270;49.004;12.066;2024-02-23T14:25:57;1.50;;;1.40;;
14373;SDS011;7270;49.004;12.066;2024-02-23T14:28:24;1.20;;;1.20;;
14373;SDS011;7270;49.004;12.066;2024-02-23T14:30:51;1.30;;;1.20;;
14373;SDS011;7270;49.004;12.066;2024-02-23T14:33:18;1.20;;;1.20;;
14373;SDS011;7270;49.004;12.066;2024-02-23T14:35:45;1.20;;;1.20;;
14373;SDS011;7270;49.004;12.066;2024-02-23T14:38:11;1.40;;;1.30;;
14373;SDS011;7270;49.004;12.066;2024-02-23T14:40:38;1.30;;;1.20;;
14373;SDS011;7270;49.004;12.066;2024-02-23T14:43:04;1.23;;;1.23;;
14373;SDS011;7270;49.004;12.066;2024-02-23T14:45:32;1.20;;;1.20;;
14373;SDS011;7270;49.004;12.066;2024-02-23T14:47:58;1.40;;;1.30;;
14373;SDS011;7270;49.004;12.066;2024-02-23T14:50:26;1.20;;;1.20;;
14373;SDS011;7270;49.004;12.066;2024-02-23T14:52:53;1.40;;;1.30;;